Time,TemperatureF,DewpointF,PressureIn,WindDirection,WindDirectionDegrees,WindSpeedMPH,WindSpeedGustMPH,Humidity,HourlyPrecipIn,Conditions,Clouds,dailyrainin,SoftwareType,DateUTC
2013-03-05 00:13:00,47.5,45.0,30.16,NW,319,0.0,0.0,89,0.00,,,0.00,weatherlink.com 1.10,2013-03-05 05:13:00,
2013-03-05 00:28:00,47.9,45.0,30.16,East,94,0.0,1.0,90,0.00,,,0.00,weatherlink.com 1.10,2013-03-05 05:28:00,
2013-03-05 00:43:00,48.8,45.0,30.15,ESE,113,0.0,1.0,86,0.00,,,0.00,weatherlink.com 1.10,2013-03-05 05:43:00,
2013-03-05 00:58:00,48.9,43.0,30.15,East,84,2.0,2.0,79,0.00,,,0.00,weatherlink.com 1.10,2013-03-05 05:58:00,
2013-03-05 01:13:00,49.0,42.0,30.15,NE,43,0.0,2.0,77,0.00,,,0.00,weatherlink.com 1.10,2013-03-05 06:13:00,
2013-03-05 01:28:00,48.2,41.0,30.15,NE,43,0.0,0.0,77,0.00,,,0.00,weatherlink.com 1.10,2013-03-05 06:28:00,
2013-03-05 01:44:00,47.2,41.0,30.16,NE,43,0.0,0.0,79,0.00,,,0.00,weatherlink.com 1.10,2013-03-05 06:44:00,
2013-03-05 01:59:00,46.6,41.0,30.15,South,184,0.0,2.0,80,0.00,,,0.00,weatherlink.com 1.10,2013-03-05 06:59:00,
2013-03-05 02:14:00,46.3,40.0,30.14,SSE,159,0.0,1.0,80,0.00,,,0.00,weatherlink.com 1.10,2013-03-05 07:14:00,
2013-03-05 02:29:00,46.4,40.0,30.14,ESE,110,0.0,1.0,77,0.00,,,0.00,weatherlink.com 1.10,2013-03-05 07:29:00,
2013-03-05 02:44:00,48.0,40.0,30.15,ENE,74,0.0,3.0,73,0.00,,,0.00,weatherlink.com 1.10,2013-03-05 07:44:00,
2013-03-05 02:59:00,47.5,40.0,30.14,SE,134,0.0,2.0,74,0.00,,,0.00,weatherlink.com 1.10,2013-03-05 07:59:00,
2013-03-05 03:14:00,47.7,39.0,30.14,SE,128,0.0,1.0,71,0.00,,,0.00,weatherlink.com 1.10,2013-03-05 08:14:00,
2013-03-05 03:29:00,47.5,40.0,30.13,SE,124,0.0,1.0,74,0.00,,,0.00,weatherlink.com 1.10,2013-03-05 08:29:00,
2013-03-05 03:44:00,47.1,40.0,30.13,SSE,147,0.0,1.0,75,0.00,,,0.00,weatherlink.com 1.10,2013-03-05 08:44:00,
2013-03-05 03:59:00,48.0,40.0,30.13,East,89,2.0,4.0,75,0.00,,,0.00,weatherlink.com 1.10,2013-03-05 08:59:00,
2013-03-05 04:14:00,48.3,41.0,30.13,ENE,71,0.0,3.0,76,0.00,,,0.00,weatherlink.com 1.10,2013-03-05 09:14:00,
2013-03-05 04:29:00,48.1,42.0,30.14,NE,50,0.0,1.0,79,0.00,,,0.00,weatherlink.com 1.10,2013-03-05 09:29:00,
2013-03-05 04:44:00,48.3,42.0,30.14,SSE,160,0.0,2.0,80,0.00,,,0.00,weatherlink.com 1.10,2013-03-05 09:44:00,
2013-03-05 04:59:00,48.3,43.0,30.14,SSE,153,0.0,3.0,82,0.00,,,0.00,weatherlink.com 1.10,2013-03-05 09:59:00,
2013-03-05 05:14:00,48.3,44.0,30.14,SE,134,0.0,3.0,84,0.00,,,0.00,weatherlink.com 1.10,2013-03-05 10:14:00,
2013-03-05 05:29:00,48.1,44.0,30.14,ESE,122,1.0,3.0,85,0.00,,,0.00,weatherlink.com 1.10,2013-03-05 10:29:00,
2013-03-05 05:44:00,48.3,44.0,30.14,SSE,165,0.0,3.0,86,0.00,,,0.00,weatherlink.com 1.10,2013-03-05 10:44:00,
2013-03-05 05:59:00,48.3,45.0,30.14,ESE,110,0.0,2.0,87,0.00,,,0.00,weatherlink.com 1.10,2013-03-05 10:59:00,
2013-03-05 06:14:00,48.1,45.0,30.15,SW,214,0.0,2.0,88,0.00,,,0.00,weatherlink.com 1.10,2013-03-05 11:14:00,
2013-03-05 06:29:00,47.7,44.0,30.15,SE,128,0.0,2.0,88,0.00,,,0.00,weatherlink.com 1.10,2013-03-05 11:29:00,
2013-03-05 06:44:00,47.1,44.0,30.16,ESE,105,0.0,2.0,89,0.00,,,0.00,weatherlink.com 1.10,2013-03-05 11:44:00,
2013-03-05 06:59:00,46.6,44.0,30.16,ESE,105,0.0,1.0,89,0.00,,,0.00,weatherlink.com 1.10,2013-03-05 11:59:00,
2013-03-05 07:14:00,46.8,44.0,30.16,East,96,0.0,0.0,90,0.00,,,0.00,weatherlink.com 1.10,2013-03-05 12:14:00,
2013-03-05 07:29:00,47.1,44.0,30.17,South,179,0.0,1.0,89,0.00,,,0.00,weatherlink.com 1.10,2013-03-05 12:29:00,
2013-03-05 07:44:00,48.3,45.0,30.17,East,88,0.0,1.0,89,0.00,,,0.00,weatherlink.com 1.10,2013-03-05 12:44:00,
2013-03-05 07:59:00,51.1,47.0,30.17,ESE,118,2.0,4.0,87,0.00,,,0.00,weatherlink.com 1.10,2013-03-05 12:59:00,
2013-03-05 08:14:00,55.1,49.0,30.17,SSE,153,0.0,3.0,80,0.00,,,0.00,weatherlink.com 1.10,2013-03-05 13:14:00,
2013-03-05 08:29:00,58.1,50.0,30.17,SE,129,2.0,3.0,74,0.00,,,0.00,weatherlink.com 1.10,2013-03-05 13:29:00,
2013-03-05 08:44:00,58.3,49.0,30.18,SSW,196,3.0,6.0,72,0.00,,,0.00,weatherlink.com 1.10,2013-03-05 13:44:00,
2013-03-05 08:59:00,59.5,50.0,30.18,SSW,212,2.0,6.0,72,0.00,,,0.00,weatherlink.com 1.10,2013-03-05 13:59:00,
2013-03-05 09:14:00,61.9,52.0,30.18,SE,138,1.0,4.0,69,0.00,,,0.00,weatherlink.com 1.10,2013-03-05 14:14:00,
2013-03-05 09:29:00,62.9,52.0,30.18,SSE,165,3.0,5.0,68,0.00,,,0.00,weatherlink.com 1.10,2013-03-05 14:29:00,
2013-03-05 09:44:00,64.1,53.0,30.18,SSW,207,3.0,5.0,67,0.00,,,0.00,weatherlink.com 1.10,2013-03-05 14:44:00,
2013-03-05 09:59:00,65.4,54.0,30.18,South,186,0.0,5.0,66,0.00,,,0.00,weatherlink.com 1.10,2013-03-05 14:59:00,
2013-03-05 10:14:00,66.0,55.0,30.18,South,184,1.0,6.0,67,0.00,,,0.00,weatherlink.com 1.10,2013-03-05 15:14:00,
2013-03-05 10:30:00,66.1,55.0,30.18,SW,215,6.0,6.0,68,0.00,,,0.00,weatherlink.com 1.10,2013-03-05 15:30:00,
2013-03-05 10:45:00,66.5,56.0,30.18,SSW,209,4.0,7.0,70,0.00,,,0.00,weatherlink.com 1.10,2013-03-05 15:45:00,
2013-03-05 11:00:00,67.1,57.0,30.18,SE,129,3.0,8.0,70,0.00,,,0.00,weatherlink.com 1.10,2013-03-05 16:00:00,
2013-03-05 11:15:00,67.9,58.0,30.17,SE,128,6.0,8.0,71,0.00,,,0.00,weatherlink.com 1.10,2013-03-05 16:15:00,
2013-03-05 11:30:00,67.9,58.0,30.17,SSW,200,1.0,9.0,70,0.00,,,0.00,weatherlink.com 1.10,2013-03-05 16:30:00,
2013-03-05 11:45:00,68.4,58.0,30.17,SSW,200,4.0,8.0,70,0.00,,,0.00,weatherlink.com 1.10,2013-03-05 16:45:00,
2013-03-05 12:00:00,68.8,59.0,30.17,SW,215,5.0,7.0,70,0.00,,,0.00,weatherlink.com 1.10,2013-03-05 17:00:00,
2013-03-05 12:15:00,69.0,59.0,30.16,SSE,167,1.0,7.0,70,0.00,,,0.00,weatherlink.com 1.10,2013-03-05 17:15:00,
2013-03-05 12:30:00,69.9,58.0,30.16,SW,225,6.0,8.0,67,0.00,,,0.00,weatherlink.com 1.10,2013-03-05 17:30:00,
2013-03-05 12:45:00,69.6,59.0,30.15,SSW,212,3.0,7.0,68,0.00,,,0.00,weatherlink.com 1.10,2013-03-05 17:45:00,
2013-03-05 13:00:00,69.0,58.0,30.15,SE,145,0.0,8.0,68,0.00,,,0.00,weatherlink.com 1.10,2013-03-05 18:00:00,
2013-03-05 13:15:00,69.4,58.0,30.14,SSW,208,6.0,8.0,68,0.00,,,0.00,weatherlink.com 1.10,2013-03-05 18:15:00,
2013-03-05 13:30:00,69.4,58.0,30.13,SW,221,3.0,7.0,68,0.00,,,0.00,weatherlink.com 1.10,2013-03-05 18:30:00,
2013-03-05 13:45:00,69.8,58.0,30.13,SSW,204,4.0,8.0,67,0.00,,,0.00,weatherlink.com 1.10,2013-03-05 18:45:00,
2013-03-05 14:00:00,69.9,59.0,30.12,WSW,253,3.0,8.0,68,0.00,,,0.00,weatherlink.com 1.10,2013-03-05 19:00:00,
2013-03-05 14:15:00,69.6,59.0,30.11,South,174,3.0,9.0,68,0.00,,,0.00,weatherlink.com 1.10,2013-03-05 19:15:00,
2013-03-05 14:30:00,69.5,58.0,30.11,SSW,208,5.0,9.0,68,0.00,,,0.00,weatherlink.com 1.10,2013-03-05 19:30:00,
2013-03-05 14:45:00,69.7,59.0,30.11,SW,225,3.0,8.0,69,0.00,,,0.00,weatherlink.com 1.10,2013-03-05 19:45:00,
2013-03-05 15:00:00,70.1,59.0,30.11,SW,226,1.0,8.0,69,0.00,,,0.00,weatherlink.com 1.10,2013-03-05 20:00:00,
2013-03-05 15:15:00,70.3,60.0,30.11,SSW,203,5.0,7.0,69,0.00,,,0.00,weatherlink.com 1.10,2013-03-05 20:15:00,
2013-03-05 15:30:00,70.4,60.0,30.11,SW,214,5.0,6.0,70,0.00,,,0.00,weatherlink.com 1.10,2013-03-05 20:30:00,
2013-03-05 15:45:00,69.8,60.0,30.11,SW,236,5.0,8.0,71,0.00,,,0.00,weatherlink.com 1.10,2013-03-05 20:45:00,
2013-03-05 16:00:00,69.9,60.0,30.11,WSW,256,3.0,5.0,71,0.00,,,0.00,weatherlink.com 1.10,2013-03-05 21:00:00,
2013-03-05 16:15:00,70.8,61.0,30.11,South,188,2.0,5.0,71,0.00,,,0.00,weatherlink.com 1.10,2013-03-05 21:15:00,
2013-03-05 16:30:00,70.0,61.0,30.11,SW,219,4.0,6.0,73,0.00,,,0.00,weatherlink.com 1.10,2013-03-05 21:30:00,
2013-03-05 16:45:00,70.9,61.0,30.11,SSE,152,2.0,5.0,70,0.00,,,0.00,weatherlink.com 1.10,2013-03-05 21:45:00,
2013-03-05 17:00:00,70.6,60.0,30.11,SW,224,5.0,7.0,70,0.00,,,0.00,weatherlink.com 1.10,2013-03-05 22:00:00,
2013-03-05 17:16:00,69.6,60.0,30.11,WSW,242,6.0,7.0,72,0.00,,,0.00,weatherlink.com 1.10,2013-03-05 22:16:00,
2013-03-05 17:31:00,69.7,60.0,30.11,SSW,193,3.0,5.0,72,0.00,,,0.00,weatherlink.com 1.10,2013-03-05 22:31:00,
2013-03-05 17:46:00,68.8,60.0,30.11,SW,221,3.0,7.0,74,0.00,,,0.00,weatherlink.com 1.10,2013-03-05 22:46:00,
2013-03-05 18:01:00,68.4,61.0,30.11,WSW,245,3.0,6.0,76,0.00,,,0.00,weatherlink.com 1.10,2013-03-05 23:01:00,
2013-03-05 18:16:00,67.7,61.0,30.10,SSW,198,1.0,4.0,78,0.00,,,0.00,weatherlink.com 1.10,2013-03-05 23:16:00,
2013-03-05 18:31:00,66.2,61.0,30.10,SSW,212,3.0,6.0,83,0.00,,,0.00,weatherlink.com 1.10,2013-03-05 23:31:00,
2013-03-05 18:46:00,65.4,61.0,30.09,SSW,205,3.0,6.0,85,0.00,,,0.00,weatherlink.com 1.10,2013-03-05 23:46:00,
2013-03-05 19:01:00,65.0,61.0,30.09,WSW,246,3.0,5.0,86,0.00,,,0.00,weatherlink.com 1.10,2013-03-06 00:01:00,
2013-03-05 19:16:00,64.7,61.0,30.09,SSW,195,1.0,5.0,87,0.00,,,0.00,weatherlink.com 1.10,2013-03-06 00:16:00,
2013-03-05 19:31:00,64.6,61.0,30.09,South,172,4.0,5.0,88,0.00,,,0.00,weatherlink.com 1.10,2013-03-06 00:31:00,
2013-03-05 19:46:00,64.5,61.0,30.09,SW,225,2.0,6.0,89,0.00,,,0.00,weatherlink.com 1.10,2013-03-06 00:46:00,
2013-03-05 20:01:00,64.6,61.0,30.08,SW,216,2.0,8.0,89,0.00,,,0.00,weatherlink.com 1.10,2013-03-06 01:01:00,
2013-03-05 20:16:00,64.7,62.0,30.09,SW,228,5.0,7.0,89,0.00,,,0.00,weatherlink.com 1.10,2013-03-06 01:16:00,
2013-03-05 20:31:00,64.8,62.0,30.09,SSW,212,2.0,8.0,89,0.00,,,0.00,weatherlink.com 1.10,2013-03-06 01:31:00,
2013-03-05 20:46:00,64.8,62.0,30.08,SW,217,4.0,9.0,89,0.00,,,0.00,weatherlink.com 1.10,2013-03-06 01:46:00,
2013-03-05 21:01:00,64.9,62.0,30.08,South,186,5.0,10.0,90,0.00,,,0.00,weatherlink.com 1.10,2013-03-06 02:01:00,
2013-03-05 21:16:00,64.9,62.0,30.08,South,187,5.0,9.0,91,0.00,,,0.00,weatherlink.com 1.10,2013-03-06 02:16:00,
2013-03-05 21:31:00,64.8,62.0,30.07,South,178,7.0,9.0,91,0.00,,,0.00,weatherlink.com 1.10,2013-03-06 02:31:00,
2013-03-05 21:46:00,64.8,63.0,30.07,South,180,5.0,10.0,92,0.00,,,0.00,weatherlink.com 1.10,2013-03-06 02:46:00,
2013-03-05 22:01:00,64.9,62.0,30.07,SSW,211,9.0,12.0,91,0.00,,,0.00,weatherlink.com 1.10,2013-03-06 03:01:00,
2013-03-05 22:16:00,64.9,63.0,30.07,SSW,207,7.0,10.0,92,0.00,,,0.00,weatherlink.com 1.10,2013-03-06 03:16:00,
2013-03-05 22:31:00,64.9,63.0,30.07,SSW,211,5.0,11.0,92,0.00,,,0.00,weatherlink.com 1.10,2013-03-06 03:31:00,
2013-03-05 22:46:00,65.0,63.0,30.07,WSW,245,6.0,11.0,92,0.00,,,0.00,weatherlink.com 1.10,2013-03-06 03:46:00,
2013-03-05 23:01:00,65.0,63.0,30.07,SSW,203,4.0,11.0,92,0.00,,,0.00,weatherlink.com 1.10,2013-03-06 04:01:00,
2013-03-05 23:16:00,65.1,63.0,30.06,SSW,208,6.0,11.0,92,0.00,,,0.00,weatherlink.com 1.10,2013-03-06 04:16:00,
2013-03-05 23:31:00,65.4,63.0,30.06,SW,224,7.0,10.0,92,0.00,,,0.00,weatherlink.com 1.10,2013-03-06 04:31:00,
2013-03-05 23:46:00,65.5,63.0,30.06,SW,215,6.0,11.0,92,0.00,,,0.00,weatherlink.com 1.10,2013-03-06 04:46:00,